createdAt,value
2019-06-01T00:02:02.518Z,1.00
2019-06-01T00:05:09.275Z,1.70
2019-06-01T00:08:15.691Z,1.80
2019-06-01T00:11:22.123Z,1.33
2019-06-01T00:14:28.487Z,1.77
2019-06-01T00:17:35.116Z,2.37
2019-06-01T00:20:42.208Z,1.60
2019-06-01T00:23:48.791Z,1.27
2019-06-01T00:26:55.223Z,2.30
2019-06-01T00:30:01.675Z,1.13
2019-06-01T00:33:08.086Z,1.27
2019-06-01T00:36:14.573Z,1.63
2019-06-01T00:39:21.339Z,1.12
2019-06-01T00:42:27.823Z,1.40
2019-06-01T00:45:34.233Z,1.20
2019-06-01T00:48:41.709Z,1.10
2019-06-01T00:51:49.082Z,2.25
2019-06-01T00:54:55.579Z,2.93
2019-06-01T00:58:01.873Z,1.27
2019-06-01T01:01:08.522Z,2.00
2019-06-01T01:04:14.874Z,2.23
2019-06-01T01:07:21.326Z,0.90
2019-06-01T01:10:27.655Z,1.37
2019-06-01T01:13:34.086Z,1.20
2019-06-01T01:16:40.538Z,1.12
2019-06-01T01:19:47.664Z,1.73
2019-06-01T01:22:54.382Z,2.70
2019-06-01T01:26:00.747Z,1.13
2019-06-01T01:29:08.161Z,2.20
2019-06-01T01:32:14.577Z,2.17
2019-06-01T01:35:20.964Z,1.57
2019-06-01T01:38:27.418Z,1.00
2019-06-01T01:41:34.025Z,1.20
2019-06-01T01:44:41.573Z,2.03
2019-06-01T01:47:49.420Z,1.33
2019-06-01T01:50:56.458Z,1.50
2019-06-01T01:54:04.520Z,1.20
2019-06-01T01:57:11.115Z,1.03
2019-06-01T02:00:32.510Z,1.07
2019-06-01T02:03:39.047Z,1.80
2019-06-01T02:06:45.425Z,1.75
2019-06-01T02:09:53.037Z,1.00
2019-06-01T02:12:59.733Z,1.30
2019-06-01T02:16:06.187Z,3.20
2019-06-01T02:19:12.525Z,2.67
2019-06-01T02:22:19.117Z,3.30
2019-06-01T02:25:25.666Z,1.53
2019-06-01T02:28:32.043Z,1.27
2019-06-01T02:31:42.356Z,3.27
2019-06-01T02:34:46.740Z,2.10
2019-06-01T02:37:54.725Z,1.10
2019-06-01T02:41:03.056Z,2.23
2019-06-01T02:44:09.665Z,3.70
2019-06-01T02:47:16.138Z,3.27
2019-06-01T02:50:23.288Z,2.40
2019-06-01T02:53:30.821Z,1.93
2019-06-01T02:56:37.199Z,2.53
2019-06-01T02:59:43.660Z,2.57
2019-06-01T03:02:49.991Z,0.90
2019-06-01T03:05:57.452Z,2.30
2019-06-01T03:09:08.349Z,3.90
2019-06-01T03:12:15.977Z,3.37
2019-06-01T03:15:22.260Z,2.20
2019-06-01T03:18:30.599Z,3.63
2019-06-01T03:21:37.036Z,4.33
2019-06-01T03:24:46.116Z,1.10
2019-06-01T03:27:54.236Z,1.87
2019-06-01T03:31:03.494Z,1.50
2019-06-01T03:34:11.489Z,4.07
2019-06-01T03:37:18.200Z,1.13
2019-06-01T03:40:24.552Z,1.13
2019-06-01T03:43:31.042Z,1.02
2019-06-01T03:46:37.737Z,1.40
2019-06-01T03:49:44.183Z,4.37
2019-06-01T03:52:50.470Z,1.13
2019-06-01T03:55:56.869Z,1.13
2019-06-01T03:59:03.315Z,1.10
2019-06-01T04:02:11.132Z,1.53
2019-06-01T04:05:17.547Z,1.10
2019-06-01T04:08:24.019Z,2.60
2019-06-01T04:11:30.505Z,1.13
2019-06-01T04:14:37.099Z,1.20
2019-06-01T04:17:43.484Z,2.07
2019-06-01T04:20:49.979Z,2.02
2019-06-01T04:23:56.353Z,1.10
2019-06-01T04:27:04.109Z,2.00
2019-06-01T04:30:11.498Z,1.23
2019-06-01T04:33:18.057Z,1.37
2019-06-01T04:36:24.327Z,1.30
2019-06-01T04:39:32.019Z,1.40
2019-06-01T04:42:38.369Z,1.10
2019-06-01T04:45:44.788Z,3.00
2019-06-01T04:48:51.678Z,4.47
2019-06-01T04:51:58.193Z,1.20
2019-06-01T04:55:05.214Z,1.63
2019-06-01T04:58:13.063Z,3.20
2019-06-01T05:01:19.466Z,1.30
2019-06-01T05:04:26.210Z,1.77
2019-06-01T05:07:32.619Z,2.40
2019-06-01T05:10:38.959Z,1.63
2019-06-01T05:13:46.405Z,1.10
2019-06-01T05:16:52.967Z,5.10
2019-06-01T05:19:59.331Z,1.33
2019-06-01T05:23:06.565Z,4.63
2019-06-01T05:26:13.262Z,3.30
2019-06-01T05:29:21.373Z,1.30
2019-06-01T05:32:27.953Z,5.20
2019-06-01T05:35:34.410Z,4.53
2019-06-01T05:38:40.776Z,1.67
2019-06-01T05:41:47.503Z,2.60
2019-06-01T05:44:54.184Z,2.97
2019-06-01T05:48:00.584Z,3.33
2019-06-01T05:51:07.332Z,6.30
2019-06-01T05:54:16.695Z,2.58
2019-06-01T05:57:23.331Z,1.77
2019-06-01T06:00:43.014Z,3.60
2019-06-01T06:03:49.409Z,3.00
2019-06-01T06:06:55.908Z,1.60
2019-06-01T06:10:02.450Z,3.80
2019-06-01T06:13:08.807Z,3.10
2019-06-01T06:16:15.734Z,2.20
2019-06-01T06:19:23.768Z,2.33
2019-06-01T06:22:30.167Z,5.50
2019-06-01T06:25:39.649Z,3.90
2019-06-01T06:28:44.660Z,3.27
2019-06-01T06:31:51.279Z,2.87
2019-06-01T06:34:57.858Z,1.83
2019-06-01T06:38:04.300Z,2.93
2019-06-01T06:41:10.622Z,3.07
2019-06-01T06:44:17.148Z,4.22
2019-06-01T06:47:23.468Z,1.30
2019-06-01T06:50:29.973Z,1.70
2019-06-01T06:53:36.481Z,3.73
2019-06-01T06:56:43.094Z,5.07
2019-06-01T06:59:50.470Z,3.43
2019-06-01T07:02:56.868Z,2.53
2019-06-01T07:06:03.247Z,2.53
2019-06-01T07:09:09.724Z,4.87
2019-06-01T07:12:16.124Z,1.93
2019-06-01T07:15:23.487Z,1.43
2019-06-01T07:18:29.905Z,1.00
2019-06-01T07:21:36.898Z,1.90
2019-06-01T07:24:43.269Z,1.67
2019-06-01T07:27:49.756Z,3.87
2019-06-01T07:30:58.858Z,2.60
2019-06-01T07:34:05.494Z,1.10
2019-06-01T07:37:12.094Z,3.73
2019-06-01T07:40:20.962Z,0.93
2019-06-01T07:43:27.413Z,1.20
2019-06-01T07:46:33.975Z,1.13
2019-06-01T07:49:40.305Z,2.00
2019-06-01T07:52:46.687Z,1.77
2019-06-01T07:55:53.260Z,2.63
2019-06-01T07:58:59.668Z,1.00
2019-06-01T08:02:06.039Z,1.17
2019-06-01T08:05:12.551Z,1.17
2019-06-01T08:08:18.884Z,1.00
2019-06-01T08:11:29.349Z,1.00
2019-06-01T08:14:33.273Z,0.73
2019-06-01T08:17:39.632Z,1.03
2019-06-01T08:20:46.036Z,1.40
2019-06-01T08:23:52.450Z,1.67
2019-06-01T08:26:58.908Z,2.30
2019-06-01T08:30:05.986Z,1.23
2019-06-01T08:33:12.385Z,0.77
2019-06-01T08:36:18.742Z,0.73
2019-06-01T08:39:25.320Z,3.30
2019-06-01T08:42:31.920Z,0.73
2019-06-01T08:45:38.343Z,0.67
2019-06-01T08:48:44.856Z,2.83
2019-06-01T08:51:52.373Z,0.72
2019-06-01T08:55:00.688Z,1.10
2019-06-01T08:58:07.136Z,0.80
2019-06-01T09:01:13.811Z,0.80
2019-06-01T09:04:20.235Z,0.80
2019-06-01T09:07:26.912Z,1.50
2019-06-01T09:10:33.363Z,0.83
2019-06-01T09:13:39.888Z,1.80
2019-06-01T09:16:46.321Z,0.90
2019-06-01T09:19:52.659Z,0.60
2019-06-01T09:22:58.967Z,1.00
2019-06-01T09:26:05.488Z,1.30
2019-06-01T09:29:12.045Z,1.02
2019-06-01T09:32:18.467Z,3.40
2019-06-01T09:35:44.718Z,1.23
2019-06-01T09:38:33.850Z,1.00
2019-06-01T09:41:41.536Z,1.05
2019-06-01T09:44:47.895Z,1.70
2019-06-01T09:47:54.236Z,2.30
2019-06-01T09:51:00.865Z,6.43
2019-06-01T09:54:07.325Z,2.20
2019-06-01T09:57:13.858Z,1.20
2019-06-01T10:00:21.547Z,2.20
2019-06-01T10:03:28.405Z,2.23
2019-06-01T10:06:34.863Z,4.80
2019-06-01T10:09:42.191Z,2.37
2019-06-01T10:12:48.572Z,2.10
2019-06-01T10:15:55.186Z,1.30
2019-06-01T10:19:01.529Z,3.40
2019-06-01T10:22:07.981Z,1.30
2019-06-01T10:25:14.399Z,4.73
2019-06-01T10:28:20.896Z,1.10
2019-06-01T10:31:27.290Z,3.20
2019-06-01T10:34:33.590Z,2.27
2019-06-01T10:37:40.087Z,6.23
2019-06-01T10:40:46.492Z,1.87
2019-06-01T10:43:52.961Z,2.83
2019-06-01T10:46:59.410Z,1.53
2019-06-01T10:50:06.407Z,4.53
2019-06-01T10:53:12.853Z,2.73
2019-06-01T10:56:19.139Z,1.00
2019-06-01T10:59:25.669Z,1.23
2019-06-01T11:02:32.588Z,1.27
2019-06-01T11:05:39.194Z,2.60
2019-06-01T11:08:45.562Z,1.40
2019-06-01T11:11:52.104Z,0.90
2019-06-01T11:14:58.474Z,1.33
2019-06-01T11:18:05.057Z,1.47
2019-06-01T11:21:11.477Z,1.00
2019-06-01T11:24:19.017Z,1.37
2019-06-01T11:27:25.269Z,1.70
2019-06-01T11:30:31.866Z,3.47
2019-06-01T11:33:38.256Z,4.07
2019-06-01T11:37:03.197Z,2.77
2019-06-01T11:39:52.927Z,1.57
2019-06-01T11:42:59.382Z,2.73
2019-06-01T11:46:06.000Z,2.00
2019-06-01T11:49:12.591Z,5.80
2019-06-01T11:52:18.961Z,3.10
2019-06-01T11:55:25.459Z,2.97
2019-06-01T11:58:32.000Z,1.60
2019-06-01T12:01:39.833Z,1.50
2019-06-01T12:04:46.484Z,2.00
2019-06-01T12:07:53.143Z,3.83
2019-06-01T12:10:59.504Z,2.03
2019-06-01T12:14:05.924Z,1.63
2019-06-01T12:17:12.302Z,1.60
2019-06-01T12:20:19.020Z,1.80
2019-06-01T12:23:25.413Z,1.67
2019-06-01T12:26:33.042Z,2.47
2019-06-01T12:29:39.487Z,1.60
2019-06-01T12:32:46.164Z,1.70
2019-06-01T12:35:52.452Z,1.80
2019-06-01T12:38:59.214Z,2.60
2019-06-01T12:42:05.583Z,1.67
2019-06-01T12:45:22.725Z,1.70
2019-06-01T12:48:26.997Z,1.67
2019-06-01T12:51:33.486Z,1.90
2019-06-01T12:54:40.369Z,3.53
2019-06-01T12:57:47.183Z,2.93
2019-06-01T13:00:53.538Z,3.53
2019-06-01T13:04:00.072Z,1.93
2019-06-01T13:07:07.424Z,2.03
2019-06-01T13:10:14.075Z,1.63
2019-06-01T13:13:20.441Z,4.87
2019-06-01T13:16:26.928Z,1.60
2019-06-01T13:19:33.181Z,4.10
2019-06-01T13:22:39.528Z,3.17
2019-06-01T13:25:45.801Z,3.50
2019-06-01T13:28:52.638Z,2.63
2019-06-01T13:31:58.965Z,2.60
2019-06-01T13:35:06.193Z,2.50
2019-06-01T13:38:12.750Z,1.90
2019-06-01T13:41:19.264Z,3.33
2019-06-01T13:44:25.542Z,2.30
2019-06-01T13:47:31.944Z,2.67
2019-06-01T13:50:38.495Z,2.47
2019-06-01T13:53:46.302Z,2.80
2019-06-01T13:56:53.112Z,2.40
2019-06-01T13:59:59.583Z,2.80
2019-06-01T14:03:07.180Z,3.00
2019-06-01T14:06:13.716Z,6.20
2019-06-01T14:09:21.935Z,2.62
2019-06-01T14:12:28.871Z,2.37
2019-06-01T14:15:35.264Z,2.83
2019-06-01T14:18:41.615Z,2.30
2019-06-01T14:21:48.091Z,2.90
2019-06-01T14:25:11.863Z,2.13
2019-06-01T14:28:02.513Z,2.53
2019-06-01T14:31:09.057Z,2.73
2019-06-01T14:34:15.486Z,4.45
2019-06-01T14:37:22.031Z,2.80
2019-06-01T14:40:28.306Z,3.70
2019-06-01T14:43:34.740Z,2.83
2019-06-01T14:46:53.362Z,3.02
2019-06-01T14:49:53.480Z,2.87
2019-06-01T14:53:00.148Z,3.53
2019-06-01T14:56:06.694Z,2.57
2019-06-01T14:59:13.087Z,3.10
2019-06-01T15:02:19.654Z,3.73
2019-06-01T15:05:26.012Z,6.27
2019-06-01T15:08:32.441Z,2.93
2019-06-01T15:11:39.160Z,2.90
2019-06-01T15:14:45.567Z,2.63
2019-06-01T15:17:51.898Z,3.83
2019-06-01T15:20:58.312Z,2.50
2019-06-01T15:24:04.999Z,3.50
2019-06-01T15:27:11.446Z,3.00
2019-06-01T15:30:19.111Z,2.60
2019-06-01T15:33:25.510Z,2.47
2019-06-01T15:36:33.129Z,5.54
2019-06-01T15:39:39.650Z,2.63
2019-06-01T15:42:46.033Z,4.10
2019-06-01T15:45:53.291Z,6.77
2019-06-01T15:49:00.168Z,3.93
2019-06-01T15:52:06.595Z,3.70
2019-06-01T15:55:13.395Z,3.83
2019-06-01T15:58:19.756Z,3.17
2019-06-01T16:01:26.231Z,3.33
2019-06-01T16:04:32.837Z,3.72
2019-06-01T16:07:39.259Z,3.33
2019-06-01T16:10:45.666Z,3.83
2019-06-01T16:13:55.684Z,3.27
2019-06-01T16:17:02.909Z,4.12
2019-06-01T16:20:10.981Z,3.63
2019-06-01T16:23:18.244Z,3.67
2019-06-01T16:26:24.712Z,3.40
2019-06-01T16:29:31.221Z,3.53
2019-06-01T16:32:39.584Z,3.73
2019-06-01T16:35:45.693Z,3.70
2019-06-01T16:38:59.521Z,4.17
2019-06-01T16:42:02.186Z,4.07
2019-06-01T16:45:08.816Z,3.70
2019-06-01T16:48:15.331Z,3.97
2019-06-01T16:51:22.082Z,3.85
2019-06-01T16:54:28.548Z,7.97
2019-06-01T16:57:35.180Z,4.12
2019-06-01T17:00:41.702Z,7.90
2019-06-01T17:03:48.084Z,4.70
2019-06-01T17:06:54.718Z,4.20
2019-06-01T17:10:19.243Z,4.20
2019-06-01T17:13:09.337Z,4.58
2019-06-01T17:16:15.917Z,4.93
2019-06-01T17:19:22.541Z,4.80
2019-06-01T17:22:29.033Z,4.70
2019-06-01T17:25:35.419Z,4.50
2019-06-01T17:28:42.000Z,4.55
2019-06-01T17:31:54.456Z,4.75
2019-06-01T17:34:56.623Z,4.30
2019-06-01T17:38:03.064Z,4.47
2019-06-01T17:41:10.385Z,4.97
2019-06-01T17:44:16.947Z,5.33
2019-06-01T17:47:27.100Z,4.00
2019-06-01T17:50:31.575Z,4.97
2019-06-01T17:53:38.028Z,4.43
2019-06-01T17:56:44.888Z,5.92
2019-06-01T17:59:51.581Z,4.72
2019-06-01T18:02:58.144Z,5.00
2019-06-01T18:06:05.893Z,4.93
2019-06-01T18:09:12.553Z,6.33
2019-06-01T18:12:19.054Z,4.47
2019-06-01T18:15:25.641Z,4.28
2019-06-01T18:18:33.265Z,4.10
2019-06-01T18:21:39.772Z,4.95
2019-06-01T18:24:46.049Z,4.87
2019-06-01T18:27:52.578Z,4.40
2019-06-01T18:30:59.060Z,2.90
2019-06-01T18:34:05.904Z,2.80
2019-06-01T18:37:13.476Z,2.83
2019-06-01T18:40:21.940Z,2.40
2019-06-01T18:43:28.214Z,2.77
2019-06-01T18:46:34.767Z,4.63
2019-06-01T18:49:41.126Z,2.30
2019-06-01T18:52:50.673Z,3.10
2019-06-01T18:55:57.014Z,2.67
2019-06-01T18:59:06.859Z,2.57
2019-06-01T19:02:14.587Z,2.93
2019-06-01T19:05:21.145Z,2.43
2019-06-01T19:08:27.523Z,2.57
2019-06-01T19:11:36.210Z,2.60
2019-06-01T19:14:42.138Z,4.17
2019-06-01T19:17:48.580Z,2.17
2019-06-01T19:20:55.098Z,2.35
2019-06-01T19:24:01.529Z,2.63
2019-06-01T19:27:08.658Z,4.37
2019-06-01T19:30:17.266Z,2.50
2019-06-01T19:33:23.585Z,2.30
2019-06-01T19:36:30.830Z,2.80
2019-06-01T19:39:38.100Z,2.57
2019-06-01T19:42:44.511Z,2.30
2019-06-01T19:45:51.023Z,2.70
2019-06-01T19:48:57.470Z,2.50
2019-06-01T19:52:03.848Z,2.47
2019-06-01T19:55:10.778Z,2.40
2019-06-01T19:58:18.773Z,3.87
2019-06-01T20:01:25.365Z,2.70
2019-06-01T20:04:31.992Z,3.33
2019-06-01T20:07:38.379Z,2.33
2019-06-01T20:10:44.796Z,3.37
2019-06-01T20:13:51.339Z,4.40
2019-06-01T20:16:57.701Z,4.37
2019-06-01T20:20:04.374Z,2.63
2019-06-01T20:23:11.283Z,4.30
2019-06-01T20:26:17.855Z,5.13
2019-06-01T20:29:24.206Z,2.70
2019-06-01T20:32:30.709Z,4.00
2019-06-01T20:35:37.063Z,2.60
2019-06-01T20:38:43.521Z,3.27
2019-06-01T20:41:49.953Z,2.77
2019-06-01T20:44:56.479Z,2.60
2019-06-01T20:48:02.873Z,2.97
2019-06-01T20:51:09.367Z,6.47
2019-06-01T20:54:16.898Z,2.52
2019-06-01T20:57:24.015Z,2.93
2019-06-01T21:00:31.903Z,2.83
2019-06-01T21:03:38.777Z,2.60
2019-06-01T21:06:45.412Z,2.67
2019-06-01T21:09:51.952Z,4.30
2019-06-01T21:12:58.360Z,2.63
2019-06-01T21:16:04.817Z,3.47
2019-06-01T21:19:11.252Z,3.20
2019-06-01T21:22:18.524Z,5.30
2019-06-01T21:25:25.482Z,4.87
2019-06-01T21:28:32.034Z,4.23
2019-06-01T21:31:38.470Z,8.20
2019-06-01T21:34:44.770Z,3.80
2019-06-01T21:37:51.144Z,4.73
2019-06-01T21:40:58.665Z,4.17
2019-06-01T21:44:05.096Z,3.93
2019-06-01T21:47:11.467Z,3.63
2019-06-01T21:50:18.246Z,3.13
2019-06-01T21:53:24.782Z,4.53
2019-06-01T21:56:31.192Z,4.60
2019-06-01T21:59:37.628Z,4.10
2019-06-01T22:02:44.001Z,5.67
2019-06-01T22:05:50.721Z,5.83
2019-06-01T22:08:57.354Z,5.30
2019-06-01T22:12:03.830Z,5.40
2019-06-01T22:15:10.949Z,6.93
2019-06-01T22:18:17.638Z,5.33
2019-06-01T22:21:23.997Z,7.17
2019-06-01T22:24:30.307Z,5.17
2019-06-01T22:27:36.825Z,3.30
2019-06-01T22:30:43.336Z,5.27
2019-06-01T22:33:49.612Z,6.33
2019-06-01T22:36:56.145Z,7.27
2019-06-01T22:40:02.508Z,4.70
2019-06-01T22:43:09.013Z,8.10
2019-06-01T22:46:15.391Z,9.60
2019-06-01T22:49:22.660Z,3.62
2019-06-01T22:52:29.205Z,8.27
2019-06-01T22:55:35.718Z,4.60
2019-06-01T22:58:42.115Z,8.40
2019-06-01T23:01:48.497Z,11.05
2019-06-01T23:04:54.994Z,10.20
2019-06-01T23:08:01.594Z,4.93
2019-06-01T23:11:08.164Z,4.87
2019-06-01T23:14:14.644Z,9.38
2019-06-01T23:17:21.552Z,9.67
2019-06-01T23:20:28.070Z,7.97
2019-06-01T23:23:34.438Z,5.87
2019-06-01T23:26:41.243Z,8.10
2019-06-01T23:29:47.788Z,10.17
2019-06-01T23:32:54.110Z,9.97
2019-06-01T23:36:00.450Z,4.83
2019-06-01T23:39:07.638Z,11.47
2019-06-01T23:42:13.992Z,9.77
2019-06-01T23:45:20.521Z,10.63
2019-06-01T23:48:27.242Z,9.93
2019-06-01T23:51:34.040Z,10.17
2019-06-01T23:54:41.448Z,6.37
2019-06-01T23:57:47.915Z,8.93
